createdAt,value
2022-09-03T00:00:39.232Z,13.33
2022-09-03T00:01:39.225Z,13.12
2022-09-03T00:02:39.204Z,13.27
2022-09-03T00:03:39.330Z,13.27
2022-09-03T00:04:39.111Z,13.23
2022-09-03T00:05:39.068Z,13.15
2022-09-03T00:06:39.036Z,13.20
2022-09-03T00:07:39.041Z,13.12
2022-09-03T00:08:38.973Z,13.04
2022-09-03T00:09:38.997Z,13.09
2022-09-03T00:10:38.911Z,13.09
2022-09-03T00:11:38.872Z,13.18
2022-09-03T00:12:38.842Z,13.23
2022-09-03T00:13:38.862Z,13.20
2022-09-03T00:14:38.783Z,13.22
2022-09-03T00:15:38.767Z,13.27
2022-09-03T00:16:38.714Z,13.11
2022-09-03T00:17:38.696Z,13.25
2022-09-03T00:18:38.724Z,13.25
2022-09-03T00:19:38.624Z,13.18
2022-09-03T00:20:38.586Z,13.22
2022-09-03T00:21:38.560Z,13.27
2022-09-03T00:22:38.522Z,13.27
2022-09-03T00:23:38.496Z,13.19
2022-09-03T00:24:38.511Z,13.16
2022-09-03T00:25:38.427Z,13.23
2022-09-03T00:26:38.399Z,13.18
2022-09-03T00:27:38.366Z,13.19
2022-09-03T00:28:38.331Z,13.20
2022-09-03T00:29:38.355Z,13.18
2022-09-03T00:30:38.265Z,13.20
2022-09-03T00:31:38.296Z,13.16
2022-09-03T00:32:38.209Z,13.13
2022-09-03T00:33:38.169Z,13.09
2022-09-03T00:34:38.191Z,13.13
2022-09-03T00:35:38.109Z,13.09
2022-09-03T00:36:38.078Z,13.12
2022-09-03T00:37:38.507Z,13.23
2022-09-03T00:38:38.010Z,13.16
2022-09-03T00:39:38.140Z,13.18
2022-09-03T00:40:38.004Z,13.15
2022-09-03T00:41:37.920Z,13.11
2022-09-03T00:42:37.886Z,13.12
2022-09-03T00:43:37.855Z,13.13
2022-09-03T00:44:37.822Z,13.15
2022-09-03T00:45:37.843Z,13.13
2022-09-03T00:46:37.808Z,13.11
2022-09-03T00:47:37.846Z,13.04
2022-09-03T00:48:37.695Z,13.15
2022-09-03T00:49:37.668Z,13.08
2022-09-03T00:50:37.685Z,13.08
2022-09-03T00:51:37.659Z,13.01
2022-09-03T00:52:37.573Z,12.97
2022-09-03T00:53:37.535Z,12.90
2022-09-03T00:54:37.500Z,12.93
2022-09-03T00:55:37.480Z,13.01
2022-09-03T00:56:37.497Z,13.04
2022-09-03T00:57:37.698Z,13.11
2022-09-03T00:58:37.374Z,13.16
2022-09-03T00:59:37.350Z,13.23
2022-09-03T01:00:37.310Z,13.25
2022-09-03T01:01:37.358Z,13.13
2022-09-03T01:02:37.338Z,13.12
2022-09-03T01:03:37.586Z,13.08
2022-09-03T01:04:37.184Z,13.04
2022-09-03T01:05:37.148Z,12.94
2022-09-03T01:06:37.115Z,13.01
2022-09-03T01:07:37.086Z,13.05
2022-09-03T01:08:37.052Z,13.08
2022-09-03T01:09:37.109Z,13.20
2022-09-03T01:10:36.991Z,13.19
2022-09-03T01:11:36.957Z,13.13
2022-09-03T01:12:36.927Z,13.04
2022-09-03T01:13:36.895Z,13.05
2022-09-03T01:14:36.864Z,13.00
2022-09-03T01:15:37.011Z,13.00
2022-09-03T01:16:36.801Z,13.03
2022-09-03T01:17:36.765Z,13.01
2022-09-03T01:18:36.733Z,12.95
2022-09-03T01:19:36.703Z,13.01
2022-09-03T01:20:36.675Z,13.08
2022-09-03T01:21:36.783Z,13.01
2022-09-03T01:22:36.604Z,13.09
2022-09-03T01:23:36.573Z,12.94
2022-09-03T01:24:36.544Z,12.90
2022-09-03T01:25:36.507Z,12.87
2022-09-03T01:26:36.477Z,12.82
2022-09-03T01:27:36.503Z,12.91
2022-09-03T01:28:36.420Z,12.90
2022-09-03T01:29:36.384Z,12.95
2022-09-03T01:30:36.350Z,13.00
2022-09-03T01:31:36.314Z,13.05
2022-09-03T01:32:36.342Z,12.97
2022-09-03T01:33:36.316Z,13.01
2022-09-03T01:34:36.220Z,13.11
2022-09-03T01:35:36.187Z,13.00
2022-09-03T01:36:36.158Z,12.98
2022-09-03T01:37:36.126Z,12.98
2022-09-03T01:38:36.165Z,12.90
2022-09-03T01:39:36.111Z,12.85
2022-09-03T01:40:36.028Z,12.83
2022-09-03T01:41:35.995Z,12.95
2022-09-03T01:42:35.970Z,12.94
2022-09-03T01:43:36.005Z,12.93
2022-09-03T01:44:35.895Z,12.95
2022-09-03T01:45:35.869Z,12.93
2022-09-03T01:46:35.861Z,12.95
2022-09-03T01:47:35.802Z,13.04
2022-09-03T01:48:35.772Z,13.04
2022-09-03T01:49:35.790Z,13.01
2022-09-03T01:50:35.709Z,13.11
2022-09-03T01:51:35.682Z,13.08
2022-09-03T01:52:35.646Z,13.04
2022-09-03T01:53:35.637Z,13.08
2022-09-03T01:54:35.633Z,13.03
2022-09-03T01:55:35.569Z,13.03
2022-09-03T01:56:35.522Z,13.04
2022-09-03T01:57:36.965Z,12.98
2022-09-03T01:58:35.451Z,12.95
2022-09-03T01:59:35.470Z,12.90
2022-09-03T02:00:35.386Z,12.94
2022-09-03T02:01:35.442Z,12.90
2022-09-03T02:02:35.378Z,12.75
2022-09-03T02:03:35.290Z,12.78
2022-09-03T02:04:35.326Z,12.76
2022-09-03T02:05:35.241Z,12.76
2022-09-03T02:06:35.193Z,12.79
2022-09-03T02:07:35.160Z,12.76
2022-09-03T02:08:35.136Z,12.83
2022-09-03T02:09:35.188Z,12.82
2022-09-03T02:10:35.068Z,12.91
2022-09-03T02:11:35.034Z,12.90
2022-09-03T02:12:35.031Z,13.00
2022-09-03T02:13:34.973Z,12.94
2022-09-03T02:14:34.936Z,12.87
2022-09-03T02:15:35.027Z,12.83
2022-09-03T02:16:34.873Z,12.85
2022-09-03T02:17:34.840Z,12.76
2022-09-03T02:18:34.805Z,12.82
2022-09-03T02:19:34.778Z,12.80
2022-09-03T02:20:34.797Z,12.73
2022-09-03T02:21:34.709Z,12.73
2022-09-03T02:22:34.677Z,12.70
2022-09-03T02:23:34.646Z,12.82
2022-09-03T02:24:34.681Z,12.67
2022-09-03T02:25:34.592Z,12.60
2022-09-03T02:26:34.619Z,12.49
2022-09-03T02:27:34.521Z,12.54
2022-09-03T02:28:34.488Z,12.58
2022-09-03T02:29:34.457Z,12.62
2022-09-03T02:30:34.473Z,12.54
2022-09-03T02:31:34.440Z,12.70
2022-09-03T02:32:34.355Z,12.50
2022-09-03T02:33:34.352Z,12.57
2022-09-03T02:34:34.293Z,12.49
2022-09-03T02:35:34.260Z,12.43
2022-09-03T02:36:34.284Z,12.42
2022-09-03T02:37:34.252Z,12.43
2022-09-03T02:38:34.167Z,12.46
2022-09-03T02:39:38.772Z,12.47
2022-09-03T02:40:34.101Z,12.57
2022-09-03T02:41:34.071Z,12.50
2022-09-03T02:42:34.093Z,12.61
2022-09-03T02:43:34.009Z,12.57
2022-09-03T02:44:33.972Z,12.49
2022-09-03T02:45:33.949Z,12.49
2022-09-03T02:46:41.660Z,12.47
2022-09-03T02:47:33.930Z,12.42
2022-09-03T02:48:33.842Z,12.42
2022-09-03T02:49:33.809Z,12.46
2022-09-03T02:50:33.777Z,12.29
2022-09-03T02:51:33.742Z,12.31
2022-09-03T02:52:33.781Z,12.28
2022-09-03T02:53:33.738Z,12.29
2022-09-03T02:54:33.649Z,12.28
2022-09-03T02:55:33.632Z,12.22
2022-09-03T02:56:33.593Z,12.24
2022-09-03T02:57:33.555Z,12.29
2022-09-03T02:58:33.626Z,12.42
2022-09-03T02:59:33.484Z,12.42
2022-09-03T03:00:33.452Z,12.45
2022-09-03T03:01:33.469Z,12.55
2022-09-03T03:02:33.424Z,12.58
2022-09-03T03:03:33.351Z,12.60
2022-09-03T03:04:33.383Z,12.55
2022-09-03T03:05:33.294Z,12.60
2022-09-03T03:06:33.261Z,12.57
2022-09-03T03:07:33.228Z,12.49
2022-09-03T03:08:33.194Z,12.46
2022-09-03T03:09:33.242Z,12.57
2022-09-03T03:10:33.130Z,12.47
2022-09-03T03:11:33.095Z,12.46
2022-09-03T03:12:33.064Z,12.45
2022-09-03T03:13:33.034Z,12.40
2022-09-03T03:14:32.999Z,12.35
2022-09-03T03:15:33.232Z,12.31
2022-09-03T03:16:33.011Z,12.29
2022-09-03T03:17:32.903Z,12.40
2022-09-03T03:18:32.877Z,12.43
2022-09-03T03:19:32.839Z,12.40
2022-09-03T03:20:32.856Z,12.39
2022-09-03T03:21:33.238Z,12.29
2022-09-03T03:22:32.750Z,12.29
2022-09-03T03:23:32.706Z,12.28
2022-09-03T03:24:32.674Z,12.37
2022-09-03T03:25:32.640Z,12.39
2022-09-03T03:26:32.692Z,12.46
2022-09-03T03:27:32.580Z,12.47
2022-09-03T03:28:32.549Z,12.49
2022-09-03T03:29:32.516Z,12.46
2022-09-03T03:30:32.519Z,12.42
2022-09-03T03:31:35.062Z,12.43
2022-09-03T03:32:32.486Z,12.47
2022-09-03T03:33:32.389Z,12.46
2022-09-03T03:34:32.359Z,12.46
2022-09-03T03:35:32.318Z,12.43
2022-09-03T03:36:32.294Z,12.36
2022-09-03T03:37:32.256Z,12.32
2022-09-03T03:38:32.277Z,12.21
2022-09-03T03:39:32.226Z,12.31
2022-09-03T03:40:32.160Z,12.28
2022-09-03T03:41:32.126Z,12.28
2022-09-03T03:42:32.095Z,12.25
2022-09-03T03:43:32.115Z,12.27
2022-09-03T03:44:32.094Z,12.28
2022-09-03T03:45:31.998Z,12.31
2022-09-03T03:46:31.967Z,12.27
2022-09-03T03:47:31.949Z,12.21
2022-09-03T03:48:31.901Z,12.15
2022-09-03T03:49:31.937Z,12.18
2022-09-03T03:50:31.833Z,12.21
2022-09-03T03:51:31.796Z,12.31
2022-09-03T03:52:31.775Z,12.29
2022-09-03T03:53:31.737Z,12.25
2022-09-03T03:54:31.797Z,12.28
2022-09-03T03:55:35.188Z,12.22
2022-09-03T03:56:31.639Z,12.31
2022-09-03T03:57:31.611Z,12.36
2022-09-03T03:58:31.578Z,12.35
2022-09-03T03:59:31.551Z,12.40
2022-09-03T04:00:31.562Z,12.32
2022-09-03T04:01:31.537Z,12.24
2022-09-03T04:02:33.354Z,12.29
2022-09-03T04:03:31.414Z,12.29
2022-09-03T04:04:31.405Z,12.29
2022-09-03T04:05:33.713Z,12.27
2022-09-03T04:06:31.417Z,12.28
2022-09-03T04:07:31.284Z,12.28
2022-09-03T04:08:31.250Z,12.40
2022-09-03T04:09:31.218Z,12.29
2022-09-03T04:10:31.184Z,12.43
2022-09-03T04:11:31.195Z,12.40
2022-09-03T04:12:31.173Z,12.46
2022-09-03T04:13:31.189Z,12.47
2022-09-03T04:14:31.680Z,12.50
2022-09-03T04:15:31.022Z,12.53
2022-09-03T04:16:31.007Z,12.62
2022-09-03T04:17:30.956Z,12.60
2022-09-03T04:18:30.987Z,12.60
2022-09-03T04:19:30.941Z,12.57
2022-09-03T04:20:30.855Z,12.62
2022-09-03T04:21:30.827Z,12.72
2022-09-03T04:22:30.796Z,12.67
2022-09-03T04:23:30.761Z,12.67
2022-09-03T04:24:31.686Z,12.68
2022-09-03T04:25:30.698Z,12.62
2022-09-03T04:26:30.670Z,12.68
2022-09-03T04:27:30.631Z,12.68
2022-09-03T04:28:30.602Z,12.72
2022-09-03T04:29:30.617Z,12.79
2022-09-03T04:30:30.566Z,12.73
2022-09-03T04:31:30.511Z,12.79
2022-09-03T04:32:30.469Z,12.79
2022-09-03T04:33:30.439Z,12.85
2022-09-03T04:34:30.465Z,12.83
2022-09-03T04:35:30.425Z,12.78
2022-09-03T04:36:30.344Z,12.83
2022-09-03T04:37:30.315Z,12.79
2022-09-03T04:38:31.081Z,12.73
2022-09-03T04:39:30.322Z,12.76
2022-09-03T04:40:30.303Z,12.82
2022-09-03T04:41:30.179Z,12.79
2022-09-03T04:42:30.147Z,12.83
2022-09-03T04:43:30.170Z,12.90
2022-09-03T04:44:30.087Z,12.91
2022-09-03T04:45:30.125Z,12.97
2022-09-03T04:46:30.208Z,13.05
2022-09-03T04:47:29.992Z,13.04
2022-09-03T04:48:30.020Z,13.08
2022-09-03T04:49:29.929Z,13.18
2022-09-03T04:50:29.951Z,13.19
2022-09-03T04:51:29.855Z,13.23
2022-09-03T04:52:29.886Z,13.22
2022-09-03T04:53:29.795Z,13.22
2022-09-03T04:54:29.896Z,13.27
2022-09-03T04:55:29.749Z,13.28
2022-09-03T04:56:29.700Z,13.31
2022-09-03T04:57:29.745Z,13.38
2022-09-03T04:58:29.647Z,13.44
2022-09-03T04:59:29.599Z,13.52
2022-09-03T05:00:29.653Z,13.50
2022-09-03T05:01:29.600Z,13.53
2022-09-03T05:02:29.580Z,13.57
2022-09-03T05:03:29.551Z,13.63
2022-09-03T05:04:29.438Z,13.57
2022-09-03T05:05:29.411Z,13.72
2022-09-03T05:06:29.379Z,13.65
2022-09-03T05:07:29.347Z,13.70
2022-09-03T05:08:29.316Z,13.77
2022-09-03T05:09:29.398Z,13.70
2022-09-03T05:10:29.248Z,13.87
2022-09-03T05:11:29.222Z,13.85
2022-09-03T05:12:29.190Z,13.87
2022-09-03T05:13:29.154Z,13.90
2022-09-03T05:14:29.126Z,13.93
2022-09-03T05:15:29.146Z,13.97
2022-09-03T05:16:29.099Z,13.97
2022-09-03T05:17:29.331Z,13.96
2022-09-03T05:18:28.997Z,14.10
2022-09-03T05:19:28.966Z,14.10
2022-09-03T05:20:28.993Z,14.08
2022-09-03T05:21:28.979Z,14.14
2022-09-03T05:22:28.873Z,14.26
2022-09-03T05:23:28.849Z,14.22
2022-09-03T05:24:28.809Z,14.28
2022-09-03T05:25:28.775Z,14.25
2022-09-03T05:26:29.257Z,14.30
2022-09-03T05:27:28.715Z,14.29
2022-09-03T05:28:28.685Z,14.35
2022-09-03T05:29:28.652Z,14.33
2022-09-03T05:30:28.619Z,14.28
2022-09-03T05:31:28.709Z,14.36
2022-09-03T05:32:28.563Z,14.43
2022-09-03T05:33:28.530Z,14.47
2022-09-03T05:34:28.496Z,14.35
2022-09-03T05:35:30.129Z,14.45
2022-09-03T05:36:28.482Z,14.48
2022-09-03T05:37:28.406Z,14.53
2022-09-03T05:38:28.369Z,14.55
2022-09-03T05:39:28.394Z,14.59
2022-09-03T05:40:28.307Z,14.68
2022-09-03T05:41:28.337Z,14.68
2022-09-03T05:42:28.298Z,14.63
2022-09-03T05:43:28.216Z,14.68
2022-09-03T05:44:28.186Z,14.69
2022-09-03T05:45:28.216Z,14.81
2022-09-03T05:46:28.123Z,14.81
2022-09-03T05:47:28.140Z,14.92
2022-09-03T05:48:28.066Z,14.85
2022-09-03T05:49:28.028Z,14.86
2022-09-03T05:50:27.998Z,14.91
2022-09-03T05:51:27.963Z,14.97
2022-09-03T05:52:27.998Z,14.94
2022-09-03T05:53:27.984Z,15.04
2022-09-03T05:54:27.872Z,15.03
2022-09-03T05:55:27.850Z,15.06
2022-09-03T05:56:27.853Z,15.09
2022-09-03T05:57:27.782Z,15.10
2022-09-03T05:58:27.806Z,15.10
2022-09-03T05:59:27.771Z,15.17
2022-09-03T06:00:27.793Z,15.21
2022-09-03T06:01:27.659Z,15.22
2022-09-03T06:02:27.684Z,15.28
2022-09-03T06:03:27.822Z,15.37
2022-09-03T06:04:27.624Z,15.39
2022-09-03T06:05:27.603Z,15.46
2022-09-03T06:06:27.503Z,15.40
2022-09-03T06:07:27.478Z,15.44
2022-09-03T06:08:27.445Z,15.43
2022-09-03T06:09:27.472Z,15.43
2022-09-03T06:10:34.439Z,15.52
2022-09-03T06:11:27.351Z,15.59
2022-09-03T06:12:27.329Z,15.59
2022-09-03T06:13:27.297Z,15.65
2022-09-03T06:14:27.258Z,15.70
2022-09-03T06:15:28.212Z,15.67
2022-09-03T06:16:30.553Z,15.65
2022-09-03T06:17:27.172Z,15.68
2022-09-03T06:18:27.146Z,15.79
2022-09-03T06:19:27.109Z,15.86
2022-09-03T06:20:27.132Z,15.90
2022-09-03T06:21:27.105Z,16.05
2022-09-03T06:22:27.023Z,16.05
2022-09-03T06:23:26.996Z,16.20
2022-09-03T06:24:28.374Z,16.15
2022-09-03T06:25:26.929Z,16.20
2022-09-03T06:26:26.985Z,16.17
2022-09-03T06:27:26.874Z,16.17
2022-09-03T06:28:26.936Z,16.24
2022-09-03T06:29:26.813Z,16.23
2022-09-03T06:30:26.823Z,16.29
2022-09-03T06:31:27.648Z,16.24
2022-09-03T06:32:26.773Z,16.33
2022-09-03T06:33:26.692Z,16.46
2022-09-03T06:34:26.681Z,16.47
2022-09-03T06:35:26.643Z,16.51
2022-09-03T06:36:26.605Z,16.58
2022-09-03T06:37:26.663Z,16.54
2022-09-03T06:38:26.543Z,16.61
2022-09-03T06:39:26.622Z,16.57
2022-09-03T06:40:26.483Z,16.58
2022-09-03T06:41:26.471Z,16.56
2022-09-03T06:42:26.495Z,16.58
2022-09-03T06:43:26.400Z,16.58
2022-09-03T06:44:26.364Z,16.66
2022-09-03T06:45:26.375Z,16.68
2022-09-03T06:46:26.305Z,16.72
2022-09-03T06:47:26.280Z,16.76
2022-09-03T06:48:26.317Z,16.69
2022-09-03T06:49:26.219Z,16.90
2022-09-03T06:50:26.191Z,16.89
2022-09-03T06:51:26.158Z,16.69
2022-09-03T06:52:26.134Z,16.78
2022-09-03T06:53:26.108Z,16.81
2022-09-03T06:54:26.123Z,16.99
2022-09-03T06:55:26.044Z,16.96
2022-09-03T06:56:26.015Z,17.01
2022-09-03T06:57:25.984Z,17.09
2022-09-03T06:58:25.968Z,17.19
2022-09-03T06:59:26.058Z,17.36
2022-09-03T07:00:25.907Z,17.30
2022-09-03T07:01:26.061Z,17.31
2022-09-03T07:02:25.887Z,17.14
2022-09-03T07:03:25.809Z,17.08
2022-09-03T07:04:25.835Z,17.01
2022-09-03T07:05:25.751Z,17.14
2022-09-03T07:06:25.718Z,17.26
2022-09-03T07:07:25.697Z,17.31
2022-09-03T07:08:25.747Z,17.33
2022-09-03T07:09:25.720Z,17.44
2022-09-03T07:10:25.605Z,17.49
2022-09-03T07:11:25.629Z,17.57
2022-09-03T07:12:25.553Z,17.60
2022-09-03T07:13:25.520Z,17.57
2022-09-03T07:14:25.493Z,17.68
2022-09-03T07:15:25.535Z,17.70
2022-09-03T07:16:25.552Z,17.79
2022-09-03T07:17:25.404Z,17.90
2022-09-03T07:18:25.446Z,17.89
2022-09-03T07:19:25.355Z,17.95
2022-09-03T07:20:25.327Z,17.98
2022-09-03T07:21:25.422Z,17.90
2022-09-03T07:22:26.068Z,17.85
2022-09-03T07:23:25.234Z,17.90
2022-09-03T07:24:25.208Z,17.92
2022-09-03T07:25:25.183Z,17.85
2022-09-03T07:26:25.151Z,17.80
2022-09-03T07:27:25.213Z,17.76
2022-09-03T07:28:25.158Z,17.83
2022-09-03T07:29:25.067Z,17.95
2022-09-03T07:30:25.044Z,18.08
2022-09-03T07:31:25.083Z,18.13
2022-09-03T07:32:24.985Z,18.08
2022-09-03T07:33:25.006Z,18.13
2022-09-03T07:34:25.531Z,18.15
2022-09-03T07:35:24.909Z,18.26
2022-09-03T07:36:24.878Z,18.31
2022-09-03T07:37:24.846Z,18.34
2022-09-03T07:38:24.934Z,18.40
2022-09-03T07:39:24.893Z,18.37
2022-09-03T07:40:24.764Z,18.29
2022-09-03T07:41:28.467Z,18.31
2022-09-03T07:42:24.720Z,18.35
2022-09-03T07:43:24.727Z,18.47
2022-09-03T07:44:24.705Z,18.56
2022-09-03T07:45:24.620Z,18.59
2022-09-03T07:46:24.629Z,18.62
2022-09-03T07:47:27.157Z,18.71
2022-09-03T07:48:24.639Z,18.95
2022-09-03T07:49:24.584Z,18.96
2022-09-03T07:50:24.540Z,19.02
2022-09-03T07:51:24.455Z,19.16
2022-09-03T07:52:24.462Z,19.21
2022-09-03T07:53:24.404Z,19.29
2022-09-03T07:54:24.418Z,19.37
2022-09-03T07:55:24.446Z,19.41
2022-09-03T07:56:24.323Z,19.41
2022-09-03T07:57:24.290Z,19.29
2022-09-03T07:58:24.367Z,19.12
2022-09-03T07:59:24.237Z,19.12
2022-09-03T08:00:24.302Z,19.08
2022-09-03T08:01:24.192Z,18.84
2022-09-03T08:02:24.156Z,18.95
2022-09-03T08:03:24.186Z,18.99
2022-09-03T08:04:24.149Z,19.00
2022-09-03T08:05:24.076Z,19.02
2022-09-03T08:06:24.271Z,18.90
2022-09-03T08:07:24.019Z,18.75
2022-09-03T08:08:23.993Z,18.80
2022-09-03T08:09:23.964Z,18.81
2022-09-03T08:10:23.943Z,18.78
2022-09-03T08:11:23.911Z,18.84
2022-09-03T08:12:23.969Z,18.86
2022-09-03T08:13:23.860Z,18.83
2022-09-03T08:14:23.845Z,18.81
2022-09-03T08:15:23.803Z,18.81
2022-09-03T08:16:23.830Z,18.80
2022-09-03T08:17:23.804Z,18.74
2022-09-03T08:18:23.785Z,18.81
2022-09-03T08:19:23.695Z,18.68
2022-09-03T08:20:23.664Z,18.58
2022-09-03T08:21:23.637Z,18.50
2022-09-03T08:22:23.664Z,18.18
2022-09-03T08:23:23.586Z,18.19
2022-09-03T08:24:23.556Z,18.07
2022-09-03T08:25:23.531Z,18.05
2022-09-03T08:26:23.502Z,17.98
2022-09-03T08:27:23.527Z,17.92
2022-09-03T08:28:23.493Z,18.03
2022-09-03T08:29:23.469Z,18.05
2022-09-03T08:30:23.387Z,18.03
2022-09-03T08:31:23.419Z,17.97
2022-09-03T08:32:23.327Z,18.01
2022-09-03T08:33:23.363Z,17.97
2022-09-03T08:34:23.270Z,17.94
2022-09-03T08:35:23.301Z,17.90
2022-09-03T08:36:23.221Z,17.90
2022-09-03T08:37:23.192Z,17.90
2022-09-03T08:38:23.287Z,17.97
2022-09-03T08:39:23.182Z,17.89
2022-09-03T08:40:23.106Z,17.98
2022-09-03T08:41:23.078Z,17.92
2022-09-03T08:42:23.045Z,17.92
2022-09-03T08:43:23.103Z,17.92
2022-09-03T08:44:23.041Z,18.01
2022-09-03T08:45:22.954Z,17.97
2022-09-03T08:46:22.959Z,17.94
2022-09-03T08:47:32.283Z,18.08
2022-09-03T08:48:25.851Z,18.11
2022-09-03T08:49:22.918Z,18.13
2022-09-03T08:50:22.813Z,18.04
2022-09-03T08:51:22.783Z,18.15
2022-09-03T08:52:22.758Z,18.19
2022-09-03T08:53:22.727Z,18.19
2022-09-03T08:54:22.694Z,18.19
2022-09-03T08:55:22.757Z,18.26
2022-09-03T08:56:22.642Z,18.20
2022-09-03T08:57:22.614Z,18.25
2022-09-03T08:58:22.625Z,18.33
2022-09-03T08:59:22.551Z,18.23
2022-09-03T09:00:22.527Z,18.16
2022-09-03T09:01:22.623Z,18.38
2022-09-03T09:02:22.589Z,18.33
2022-09-03T09:03:22.442Z,18.34
2022-09-03T09:04:22.412Z,18.29
2022-09-03T09:05:22.385Z,18.38
2022-09-03T09:06:22.348Z,18.38
2022-09-03T09:07:22.375Z,18.37
2022-09-03T09:08:22.333Z,18.28
2022-09-03T09:09:22.267Z,18.38
2022-09-03T09:10:22.244Z,18.45
2022-09-03T09:11:22.229Z,18.47
2022-09-03T09:12:22.249Z,18.50
2022-09-03T09:13:22.171Z,18.58
2022-09-03T09:14:22.127Z,18.56
2022-09-03T09:15:22.095Z,18.63
2022-09-03T09:16:22.170Z,18.68
2022-09-03T09:17:22.364Z,18.63
2022-09-03T09:18:22.128Z,18.74
2022-09-03T09:19:22.104Z,18.77
2022-09-03T09:20:23.689Z,18.75
2022-09-03T09:21:27.384Z,18.83
2022-09-03T09:22:21.891Z,18.80
2022-09-03T09:23:22.688Z,18.73
2022-09-03T09:24:22.688Z,18.84
2022-09-03T09:25:22.711Z,18.95
2022-09-03T09:26:21.809Z,18.98
2022-09-03T09:27:21.745Z,19.12
2022-09-03T09:28:21.774Z,19.15
2022-09-03T09:29:21.751Z,19.16
2022-09-03T09:30:21.702Z,19.14
2022-09-03T09:31:21.735Z,19.21
2022-09-03T09:32:21.864Z,19.22
2022-09-03T09:33:21.575Z,19.29
2022-09-03T09:34:23.192Z,19.33
2022-09-03T09:35:21.593Z,19.33
2022-09-03T09:36:21.499Z,19.34
2022-09-03T09:37:21.454Z,19.34
2022-09-03T09:38:21.451Z,19.40
2022-09-03T09:39:21.457Z,19.39
2022-09-03T09:40:21.485Z,19.39
2022-09-03T09:41:22.117Z,19.36
2022-09-03T09:42:21.313Z,19.54
2022-09-03T09:43:21.289Z,19.52
2022-09-03T09:44:21.281Z,19.49
2022-09-03T09:45:21.236Z,19.55
2022-09-03T09:46:21.334Z,19.66
2022-09-03T09:47:21.203Z,19.69
2022-09-03T09:48:21.196Z,19.76
2022-09-03T09:49:21.141Z,19.79
2022-09-03T09:50:25.032Z,19.81
2022-09-03T09:51:21.088Z,19.88
2022-09-03T09:52:21.108Z,19.82
2022-09-03T09:53:21.017Z,19.88
2022-09-03T09:54:20.975Z,19.92
2022-09-03T09:55:20.952Z,20.04
2022-09-03T09:56:20.929Z,20.11
2022-09-03T09:57:20.998Z,20.18
2022-09-03T09:58:20.943Z,20.14
2022-09-03T09:59:20.846Z,20.31
2022-09-03T10:00:20.805Z,20.29
2022-09-03T10:01:20.854Z,20.22
2022-09-03T10:02:22.529Z,20.28
2022-09-03T10:03:20.920Z,20.39
2022-09-03T10:04:21.205Z,20.40
2022-09-03T10:05:20.716Z,20.40
2022-09-03T10:06:20.672Z,20.47
2022-09-03T10:07:20.632Z,20.48
2022-09-03T10:08:20.690Z,20.41
2022-09-03T10:09:20.570Z,20.56
2022-09-03T10:10:20.552Z,20.62
2022-09-03T10:11:20.524Z,20.58
2022-09-03T10:12:20.485Z,20.59
2022-09-03T10:13:20.464Z,20.59
2022-09-03T10:14:20.497Z,20.60
2022-09-03T10:15:20.392Z,20.44
2022-09-03T10:16:20.402Z,20.59
2022-09-03T10:17:20.332Z,20.67
2022-09-03T10:18:23.245Z,20.75
2022-09-03T10:19:20.276Z,20.81
2022-09-03T10:20:20.416Z,20.84
2022-09-03T10:21:20.246Z,20.97
2022-09-03T10:22:20.193Z,20.99
2022-09-03T10:23:20.184Z,21.09
2022-09-03T10:24:20.126Z,21.22
2022-09-03T10:25:20.199Z,21.37
2022-09-03T10:26:20.071Z,21.33
2022-09-03T10:27:20.054Z,21.25
2022-09-03T10:28:20.110Z,21.45
2022-09-03T10:29:20.046Z,21.45
2022-09-03T10:30:20.035Z,21.52
2022-09-03T10:31:20.049Z,21.88
2022-09-03T10:32:19.908Z,21.96
2022-09-03T10:33:19.895Z,21.98
2022-09-03T10:34:19.898Z,22.26
2022-09-03T10:35:19.846Z,22.36
2022-09-03T10:36:19.867Z,22.54
2022-09-03T10:37:19.899Z,22.69
2022-09-03T10:38:19.828Z,22.81
2022-09-03T10:39:19.828Z,22.80
2022-09-03T10:40:19.703Z,22.81
2022-09-03T10:41:19.690Z,22.88
2022-09-03T10:42:19.661Z,22.98
2022-09-03T10:43:19.720Z,22.98
2022-09-03T10:44:19.606Z,22.99
2022-09-03T10:45:19.569Z,23.02
2022-09-03T10:46:23.847Z,23.10
2022-09-03T10:47:19.523Z,23.18
2022-09-03T10:48:19.546Z,23.37
2022-09-03T10:49:19.558Z,23.68
2022-09-03T10:50:20.720Z,23.81
2022-09-03T10:51:19.415Z,23.95
2022-09-03T10:52:19.416Z,23.98
2022-09-03T10:53:19.385Z,24.21
2022-09-03T10:54:19.342Z,24.17
2022-09-03T10:55:19.390Z,23.93
2022-09-03T10:56:19.332Z,23.88
2022-09-03T10:57:19.349Z,23.86
2022-09-03T10:58:19.267Z,23.69
2022-09-03T10:59:19.233Z,23.58
2022-09-03T11:00:19.190Z,23.51
2022-09-03T11:01:19.308Z,23.54
2022-09-03T11:02:19.194Z,23.68
2022-09-03T11:03:21.156Z,23.76
2022-09-03T11:04:19.099Z,23.93
2022-09-03T11:05:19.072Z,24.14
2022-09-03T11:06:19.116Z,24.45
2022-09-03T11:07:19.157Z,24.55
2022-09-03T11:08:19.091Z,24.68
2022-09-03T11:09:18.978Z,24.74
2022-09-03T11:10:18.941Z,24.81
2022-09-03T11:11:18.931Z,24.77
2022-09-03T11:12:18.906Z,24.70
2022-09-03T11:13:18.949Z,24.47
2022-09-03T11:14:18.848Z,24.38
2022-09-03T11:15:18.842Z,24.33
2022-09-03T11:16:18.916Z,24.33
2022-09-03T11:17:18.776Z,24.18
2022-09-03T11:18:18.765Z,24.20
2022-09-03T11:19:18.806Z,24.10
2022-09-03T11:20:18.706Z,24.03
2022-09-03T11:21:18.697Z,23.96
2022-09-03T11:22:21.005Z,23.96
2022-09-03T11:23:18.643Z,23.83
2022-09-03T11:24:18.695Z,23.96
2022-09-03T11:25:18.595Z,23.96
2022-09-03T11:26:18.656Z,24.02
2022-09-03T11:27:18.564Z,24.08
2022-09-03T11:28:18.527Z,24.08
2022-09-03T11:29:18.506Z,24.08
2022-09-03T11:30:20.239Z,24.24
2022-09-03T11:31:18.562Z,24.36
2022-09-03T11:32:18.438Z,24.36
2022-09-03T11:33:18.405Z,24.38
2022-09-03T11:34:23.541Z,24.42
2022-09-03T11:35:18.363Z,24.39
2022-09-03T11:36:23.235Z,24.24
2022-09-03T11:37:18.329Z,24.21
2022-09-03T11:38:18.272Z,24.16
2022-09-03T11:39:18.325Z,24.11
2022-09-03T11:40:18.247Z,24.13
2022-09-03T11:41:18.281Z,23.71
2022-09-03T11:42:18.185Z,23.65
2022-09-03T11:43:18.160Z,23.36
2022-09-03T11:44:18.136Z,23.32
2022-09-03T11:45:18.108Z,23.27
2022-09-03T11:46:18.232Z,23.24
2022-09-03T11:47:18.070Z,23.20
2022-09-03T11:48:18.037Z,23.06
2022-09-03T11:49:18.009Z,23.03
2022-09-03T11:50:18.046Z,23.00
2022-09-03T11:51:18.052Z,22.93
2022-09-03T11:52:17.956Z,22.90
2022-09-03T11:53:17.917Z,22.88
2022-09-03T11:54:17.893Z,22.87
2022-09-03T11:55:17.864Z,22.84
2022-09-03T11:56:17.848Z,22.73
2022-09-03T11:57:17.877Z,22.80
2022-09-03T11:58:17.815Z,22.78
2022-09-03T11:59:18.359Z,22.70
2022-09-03T12:00:17.742Z,22.75
2022-09-03T12:01:17.726Z,22.76
2022-09-03T12:02:17.900Z,22.76
2022-09-03T12:03:17.671Z,22.63
2022-09-03T12:04:17.698Z,22.51
2022-09-03T12:05:17.617Z,22.59
2022-09-03T12:06:17.596Z,22.59
2022-09-03T12:07:20.869Z,22.60
2022-09-03T12:08:17.643Z,22.59
2022-09-03T12:09:17.520Z,22.62
2022-09-03T12:10:17.490Z,22.72
2022-09-03T12:11:17.463Z,22.72
2022-09-03T12:12:17.504Z,22.84
2022-09-03T12:13:17.410Z,22.80
2022-09-03T12:14:17.450Z,22.78
2022-09-03T12:15:17.367Z,22.70
2022-09-03T12:16:17.477Z,22.83
2022-09-03T12:17:17.322Z,22.78
2022-09-03T12:18:17.290Z,22.81
2022-09-03T12:19:17.326Z,22.83
2022-09-03T12:20:17.290Z,22.94
2022-09-03T12:21:17.213Z,22.99
2022-09-03T12:22:17.192Z,23.02
2022-09-03T12:23:17.193Z,23.06
2022-09-03T12:24:17.140Z,23.12
2022-09-03T12:25:17.169Z,23.10
2022-09-03T12:26:17.093Z,23.09
2022-09-03T12:27:17.073Z,23.02
2022-09-03T12:28:17.036Z,22.99
2022-09-03T12:29:17.011Z,22.98
2022-09-03T12:30:17.043Z,23.05
2022-09-03T12:31:17.022Z,22.90
2022-09-03T12:32:16.933Z,23.02
2022-09-03T12:33:16.964Z,22.94
2022-09-03T12:34:16.892Z,22.90
2022-09-03T12:35:58.367Z,22.83
2022-09-03T12:36:16.840Z,22.75
2022-09-03T12:37:16.976Z,22.73
2022-09-03T12:38:18.705Z,22.75
2022-09-03T12:39:17.104Z,22.69
2022-09-03T12:40:16.763Z,22.78
2022-09-03T12:41:24.118Z,22.75
2022-09-03T12:42:16.692Z,22.72
2022-09-03T12:44:16.774Z,22.73
2022-09-03T12:45:16.606Z,22.75
2022-09-03T12:46:17.868Z,22.44
2022-09-03T12:48:16.536Z,22.38
2022-09-03T12:49:31.857Z,22.35
2022-09-03T12:50:16.867Z,22.43
2022-09-03T12:52:16.490Z,22.25
2022-09-03T12:53:16.464Z,22.33
2022-09-03T12:54:16.381Z,22.25
2022-09-03T12:55:16.365Z,22.25